Time;durP1;ratioP1;P1;durP2;ratioP2;P2;SDS_P1;SDS_P2;PMS_P1;PMS_P2;Temp;Humidity;BMP_temperature;BMP_pressure;BME280_temperature;BME280_humidity;BME280_pressure;Samples;Min_cycle;Max_cycle;Signal;HPM_P1;HPM_P2
2023/11/03 00:00:45;;;;;;;11.43;5.43;;;;;;;;;;6291278;22;20011;-94
2023/11/03 00:14:24;;;;;;;11.23;6.93;;;;;;;;;;6317928;22;20026;-94
2023/11/03 00:19:58;;;;;;;12.40;7.18;;;;;;;;;;6326851;22;20018;-95
2023/11/03 00:22:30;;;;;;;10.85;6.38;;;;;;;;;;6238827;22;20035;-93
2023/11/03 00:25:11;;;;;;;11.88;6.35;;;;;;;;;;6271366;22;20015;-95
2023/11/03 00:27:42;;;;;;;13.10;6.25;;;;;;;;;;6278004;22;20007;-96
2023/11/03 00:30:35;;;;;;;13.38;6.53;;;;;;;;;;6285613;22;20007;-93
2023/11/03 00:33:14;;;;;;;9.75;5.88;;;;;;;;;;6277097;22;20019;-95
2023/11/03 00:35:46;;;;;;;9.75;6.35;;;;;;;;;;6318334;22;20026;-96
2023/11/03 00:38:19;;;;;;;10.60;6.90;;;;;;;;;;6298780;22;20003;-92
2023/11/03 00:41:20;;;;;;;11.77;6.97;;;;;;;;;;6323931;22;20064;-96
2023/11/03 00:44:04;;;;;;;12.43;6.88;;;;;;;;;;6198240;23;20061;-93
2023/11/03 00:46:57;;;;;;;12.40;6.88;;;;;;;;;;6176436;23;20017;-93
2023/11/03 00:49:43;;;;;;;11.38;6.72;;;;;;;;;;6262542;23;19996;-96
2023/11/03 00:52:19;;;;;;;11.60;6.88;;;;;;;;;;6256937;23;20031;-93
2023/11/03 00:55:01;;;;;;;;;;;;;;;;;;;;;
2023/11/03 01:00:41;;;;;;;10.35;6.78;;;;;;;;;;6229856;23;20043;-96
2023/11/03 01:03:37;;;;;;;11.73;7.25;;;;;;;;;;6157984;23;20004;-92
2023/11/03 01:15:07;;;;;;;13.00;8.20;;;;;;;;;;6306674;22;20293;-94
2023/11/03 01:17:41;;;;;;;11.73;8.20;;;;;;;;;;6303172;22;20012;-93
2023/11/03 01:20:42;;;;;;;13.23;8.95;;;;;;;;;;6304013;22;20007;-93
2023/11/03 01:23:20;;;;;;;14.55;10.82;;;;;;;;;;6290205;22;20010;-95
2023/11/03 01:26:01;;;;;;;15.05;8.95;;;;;;;;;;6269313;22;20106;-96
2023/11/03 01:34:05;;;;;;;13.68;8.00;;;;;;;;;;6284492;22;20023;-93
2023/11/03 01:39:48;;;;;;;;;;;;;;;;;;;;;
2023/11/03 01:45:36;;;;;;;13.10;8.55;;;;;;;;;;6286343;22;20073;-93
2023/11/03 01:48:04;;;;;;;;;;;;;;;;;;6285348;22;20034;-91
2023/11/03 01:53:35;;;;;;;15.80;10.80;;;;;;;;;;6284362;22;20011;-93
2023/11/03 02:05:04;;;;;;;14.73;9.07;;;;;;;;;;6134711;23;20069;-92
2023/11/03 02:07:52;;;;;;;12.15;8.68;;;;;;;;;;6147479;23;20002;-92
2023/11/03 02:13:01;;;;;;;12.70;9.35;;;;;;;;;;6261471;22;20035;-90
2023/11/03 02:16:03;;;;;;;13.30;9.07;;;;;;;;;;6256585;23;20010;-94
2023/11/03 02:18:46;;;;;;;13.02;7.93;;;;;;;;;;6108384;23;20081;-91
2023/11/03 02:21:25;;;;;;;12.00;8.87;;;;;;;;;;6132066;23;20001;-92
2023/11/03 02:30:07;;;;;;;12.40;9.07;;;;;;;;;;6072636;23;20018;-92
2023/11/03 02:32:36;;;;;;;14.93;9.15;;;;;;;;;;6074262;23;20014;-90
2023/11/03 02:35:24;;;;;;;13.77;9.05;;;;;;;;;;6045995;23;20524;-90
2023/11/03 02:38:20;;;;;;;17.50;10.27;;;;;;;;;;6052738;23;20539;-92
2023/11/03 02:40:54;;;;;;;18.15;10.82;;;;;;;;;;6162658;23;20339;-90
2023/11/03 02:43:35;;;;;;;17.92;10.32;;;;;;;;;;6093258;23;20009;-90
2023/11/03 02:46:08;;;;;;;18.58;10.38;;;;;;;;;;6140015;23;20006;-93
2023/11/03 03:00:48;;;;;;;10.73;8.07;;;;;;;;;;6216580;23;20023;-91
2023/11/03 03:03:26;;;;;;;11.02;8.52;;;;;;;;;;6188598;23;20442;-92
2023/11/03 03:05:56;;;;;;;14.07;8.38;;;;;;;;;;6206178;23;20095;-92
2023/11/03 03:08:25;;;;;;;14.10;8.13;;;;;;;;;;6224273;23;20061;-91
2023/11/03 03:11:01;;;;;;;10.30;6.90;;;;;;;;;;6224215;22;20073;-94
2023/11/03 03:13:31;;;;;;;10.80;8.05;;;;;;;;;;6222955;23;20045;-91
2023/11/03 03:16:35;;;;;;;12.55;7.78;;;;;;;;;;6223357;23;20008;-91
2023/11/03 03:19:04;;;;;;;11.95;7.65;;;;;;;;;;6225322;23;20000;-92
2023/11/03 03:21:33;;;;;;;11.98;7.35;;;;;;;;;;6224220;23;20032;-90
2023/11/03 03:30:23;;;;;;;14.85;7.22;;;;;;;;;;6252023;23;20111;-95
2023/11/03 03:36:15;;;;;;;13.02;7.78;;;;;;;;;;6128216;23;20036;-91
2023/11/03 03:38:44;;;;;;;14.07;7.93;;;;;;;;;;6221623;23;20038;-91
2023/11/03 03:41:22;;;;;;;10.90;8.68;;;;;;;;;;6221186;23;20429;-96
2023/11/03 03:43:54;;;;;;;13.02;8.65;;;;;;;;;;6221573;23;20032;-94
2023/11/03 03:46:23;;;;;;;11.70;7.90;;;;;;;;;;6223022;23;20099;-95
2023/11/03 03:48:50;;;;;;;10.00;7.20;;;;;;;;;;6228196;23;20011;-92
2023/11/03 03:51:29;;;;;;;13.07;8.27;;;;;;;;;;6199293;23;20011;-94
2023/11/03 03:54:01;;;;;;;12.15;7.65;;;;;;;;;;6221713;23;20486;-93
2023/11/03 03:56:36;;;;;;;12.48;8.18;;;;;;;;;;6222005;23;20004;-93
2023/11/03 03:59:08;;;;;;;12.50;7.97;;;;;;;;;;6222431;23;20433;-93
2023/11/03 04:01:51;;;;;;;11.55;8.05;;;;;;;;;;6224756;23;20310;-94
2023/11/03 04:04:28;;;;;;;11.95;7.38;;;;;;;;;;6246191;23;20062;-92
2023/11/03 04:10:12;;;;;;;11.68;7.57;;;;;;;;;;6226903;23;20405;-94
2023/11/03 04:12:38;;;;;;;11.00;7.80;;;;;;;;;;6225569;23;20437;-93
2023/11/03 04:15:11;;;;;;;12.75;7.88;;;;;;;;;;6218405;23;20004;-92
2023/11/03 04:17:37;;;;;;;11.60;7.38;;;;;;;;;;6231324;23;20008;-92
2023/11/03 04:20:11;;;;;;;11.50;6.40;;;;;;;;;;6254474;23;19996;-95
2023/11/03 04:22:49;;;;;;;11.63;7.60;;;;;;;;;;6196789;23;20008;-96
2023/11/03 04:25:40;;;;;;;11.10;8.07;;;;;;;;;;6196285;23;20099;-94
2023/11/03 04:28:18;;;;;;;13.50;7.95;;;;;;;;;;6220696;23;20000;-94
2023/11/03 04:30:53;;;;;;;10.20;7.20;;;;;;;;;;6221098;23;20418;-96
2023/11/03 04:33:37;;;;;;;12.35;6.40;;;;;;;;;;6221151;23;20464;-93
2023/11/03 04:36:04;;;;;;;13.90;7.15;;;;;;;;;;6185526;23;20553;-92
2023/11/03 04:38:48;;;;;;;13.80;7.50;;;;;;;;;;6161464;23;20005;-95
2023/11/03 04:41:15;;;;;;;11.43;6.32;;;;;;;;;;6162892;23;20009;-92
2023/11/03 04:43:44;;;;;;;10.57;6.38;;;;;;;;;;6168258;23;20005;-92
2023/11/03 04:46:13;;;;;;;11.48;5.82;;;;;;;;;;6167852;23;20044;-95
2023/11/03 04:48:42;;;;;;;9.63;6.22;;;;;;;;;;6169207;23;20012;-94
2023/11/03 04:51:11;;;;;;;8.50;6.03;;;;;;;;;;6162118;23;20005;-93
2023/11/03 04:53:40;;;;;;;9.35;6.13;;;;;;;;;;6160598;23;20002;-92
2023/11/03 04:56:09;;;;;;;12.25;6.75;;;;;;;;;;6161917;23;20005;-93
2023/11/03 04:59:00;;;;;;;10.38;6.40;;;;;;;;;;6149542;23;20005;-94
2023/11/03 05:01:33;;;;;;;10.80;5.90;;;;;;;;;;6160935;23;20478;-93
2023/11/03 05:04:07;;;;;;;9.27;5.55;;;;;;;;;;6155393;23;20120;-94
2023/11/03 05:06:37;;;;;;;8.60;5.03;;;;;;;;;;6179792;23;20004;-93
2023/11/03 05:09:07;;;;;;;10.82;6.03;;;;;;;;;;6222814;23;20012;-96
2023/11/03 05:12:03;;;;;;;10.52;5.93;;;;;;;;;;6232426;23;20019;-93
2023/11/03 05:14:36;;;;;;;8.38;5.82;;;;;;;;;;6256178;22;19992;-95
2023/11/03 05:19:37;;;;;;;10.82;6.60;;;;;;;;;;6322636;22;20003;-93
2023/11/03 05:22:13;;;;;;;9.95;5.68;;;;;;;;;;6297579;22;20000;-95
2023/11/03 05:24:44;;;;;;;9.52;5.88;;;;;;;;;;6283740;22;20011;-93
2023/11/03 05:27:13;;;;;;;14.45;6.60;;;;;;;;;;6285673;22;20101;-95
2023/11/03 05:29:48;;;;;;;9.30;6.00;;;;;;;;;;6287073;22;20432;-94
2023/11/03 05:32:33;;;;;;;11.57;6.20;;;;;;;;;;6291939;22;20014;-92
2023/11/03 05:35:05;;;;;;;11.32;6.47;;;;;;;;;;6270082;22;20020;-94
2023/11/03 05:37:40;;;;;;;10.30;6.57;;;;;;;;;;6284982;22;20057;-92
2023/11/03 05:40:11;;;;;;;14.32;6.72;;;;;;;;;;6311558;22;20003;-94
2023/11/03 05:48:19;;;;;;;11.70;6.95;;;;;;;;;;6280678;22;20020;-95
2023/11/03 05:53:32;;;;;;;10.73;6.20;;;;;;;;;;6296788;22;20023;-94
2023/11/03 05:56:04;;;;;;;10.50;6.68;;;;;;;;;;6313000;22;20013;-93
2023/11/03 05:58:37;;;;;;;11.88;7.32;;;;;;;;;;6309598;22;20078;-94
2023/11/03 06:01:03;;;;;;;10.70;7.43;;;;;;;;;;6311228;22;20014;-94
2023/11/03 06:03:29;;;;;;;12.90;7.10;;;;;;;;;;6284164;22;20023;-94
2023/11/03 06:06:02;;;;;;;10.35;7.78;;;;;;;;;;6279471;22;20015;-93
2023/11/03 06:08:28;;;;;;;12.10;7.32;;;;;;;;;;6274124;22;20020;-94
2023/11/03 06:11:08;;;;;;;8.65;6.50;;;;;;;;;;6294295;22;20003;-93
2023/11/03 06:14:13;;;;;;;11.20;6.30;;;;;;;;;;6284760;22;20004;-92
2023/11/03 06:16:39;;;;;;;11.82;5.40;;;;;;;;;;6280954;22;20007;-92
2023/11/03 06:19:14;;;;;;;9.65;6.60;;;;;;;;;;6279001;22;20007;-93
2023/11/03 06:21:46;;;;;;;13.02;6.28;;;;;;;;;;6281389;22;20003;-94
2023/11/03 06:24:16;;;;;;;8.00;5.45;;;;;;;;;;6286598;22;19992;-95
2023/11/03 06:29:46;;;;;;;;;;;;;;;;;;6307237;22;20106;-94
2023/11/03 06:32:12;;;;;;;12.00;6.63;;;;;;;;;;6310203;22;19907;-94
2023/11/03 06:34:53;;;;;;;9.95;6.97;;;;;;;;;;6309405;22;20018;-93
2023/11/03 06:37:22;;;;;;;11.23;7.10;;;;;;;;;;6309306;22;20034;-94
2023/11/03 06:40:10;;;;;;;15.40;7.93;;;;;;;;;;6313016;22;20070;-95
2023/11/03 06:42:43;;;;;;;10.68;7.38;;;;;;;;;;6309676;22;19999;-96
2023/11/03 06:45:16;;;;;;;11.25;6.68;;;;;;;;;;6309864;22;20517;-96
2023/11/03 06:47:42;;;;;;;13.18;7.40;;;;;;;;;;6288771;22;20020;-94
2023/11/03 06:50:12;;;;;;;13.32;6.93;;;;;;;;;;6314306;22;20019;-94
2023/11/03 06:52:43;;;;;;;13.57;8.20;;;;;;;;;;6284043;22;20007;-95
2023/11/03 06:55:13;;;;;;;13.82;7.47;;;;;;;;;;6282149;22;19999;-95
2023/11/03 06:57:44;;;;;;;14.20;7.78;;;;;;;;;;6283525;22;20010;-94
2023/11/03 07:00:46;;;;;;;8.98;6.63;;;;;;;;;;6282797;22;20038;-94
2023/11/03 07:03:15;;;;;;;18.27;9.75;;;;;;;;;;6160928;23;20016;-94
2023/11/03 07:05:56;;;;;;;13.52;7.95;;;;;;;;;;6270011;22;20041;-94
2023/11/03 07:08:25;;;;;;;12.13;7.80;;;;;;;;;;6279481;22;20003;-94
2023/11/03 07:10:52;;;;;;;14.57;10.40;;;;;;;;;;6281493;22;20008;-93
2023/11/03 07:13:28;;;;;;;14.43;9.77;;;;;;;;;;6279452;22;20075;-94
2023/11/03 07:19:00;;;;;;;20.30;12.38;;;;;;;;;;6246392;23;20042;-94
2023/11/03 07:21:26;;;;;;;19.23;9.77;;;;;;;;;;6251270;22;20008;-93
2023/11/03 07:23:57;;;;;;;13.13;8.10;;;;;;;;;;6221794;23;20004;-93
2023/11/03 07:26:30;;;;;;;12.38;8.90;;;;;;;;;;6221032;23;20085;-94
2023/11/03 07:28:59;;;;;;;16.70;9.65;;;;;;;;;;6221655;23;20000;-93
2023/11/03 07:31:46;;;;;;;14.45;8.90;;;;;;;;;;6223638;23;20008;-94
2023/11/03 07:34:11;;;;;;;15.20;10.07;;;;;;;;;;6246286;23;20346;-93
2023/11/03 07:36:40;;;;;;;16.48;11.32;;;;;;;;;;6246834;23;20004;-94
2023/11/03 07:39:16;;;;;;;12.50;7.35;;;;;;;;;;6246447;23;20066;-93
2023/11/03 07:41:45;;;;;;;10.93;7.88;;;;;;;;;;6220685;23;20004;-93
2023/11/03 07:44:15;;;;;;;12.30;8.05;;;;;;;;;;6221936;23;20008;-91
2023/11/03 07:47:05;;;;;;;15.38;8.57;;;;;;;;;;6220094;22;20058;-95
2023/11/03 07:49:43;;;;;;;13.10;8.20;;;;;;;;;;6280860;22;20015;-92
2023/11/03 07:52:10;;;;;;;9.55;6.57;;;;;;;;;;6278345;22;20027;-92
2023/11/03 07:55:01;;;;;;;10.23;6.90;;;;;;;;;;6275887;22;20003;-93
2023/11/03 07:57:38;;;;;;;12.70;7.93;;;;;;;;;;6282064;22;20008;-92
2023/11/03 08:00:04;;;;;;;13.77;7.85;;;;;;;;;;6284535;22;20000;-93
2023/11/03 08:02:38;;;;;;;12.85;7.60;;;;;;;;;;6283410;22;20010;-94
2023/11/03 08:11:06;;;;;;;12.60;6.82;;;;;;;;;;6217506;23;20070;-93
2023/11/03 08:13:40;;;;;;;14.77;6.85;;;;;;;;;;6191029;23;20063;-94
2023/11/03 08:16:13;;;;;;;11.35;6.85;;;;;;;;;;6214607;23;20083;-93
2023/11/03 08:18:55;;;;;;;13.38;8.27;;;;;;;;;;6188011;23;20455;-94
2023/11/03 08:21:30;;;;;;;10.57;7.65;;;;;;;;;;6208009;23;20005;-94
2023/11/03 08:24:21;;;;;;;13.10;8.10;;;;;;;;;;6216040;22;20374;-93
2023/11/03 08:26:47;;;;;;;14.32;7.38;;;;;;;;;;6289488;22;20027;-95
2023/11/03 08:29:14;;;;;;;12.43;7.50;;;;;;;;;;6277489;22;20107;-93
2023/11/03 08:31:46;;;;;;;11.20;7.03;;;;;;;;;;6278403;22;20008;-92
2023/11/03 08:34:15;;;;;;;14.95;9.32;;;;;;;;;;6277934;22;20014;-93
2023/11/03 08:36:47;;;;;;;12.60;7.93;;;;;;;;;;6277987;22;20004;-94
2023/11/03 08:39:20;;;;;;;10.57;6.50;;;;;;;;;;6251827;22;20022;-96
2023/11/03 08:42:03;;;;;;;;;;;;;;;;;;;;;
2023/11/03 08:45:07;;;;;;;;;;;;;;;;;;;;;
2023/11/03 08:47:43;;;;;;;8.65;5.50;;;;;;;;;;6274044;22;20087;-94
2023/11/03 08:50:19;;;;;;;8.60;5.85;;;;;;;;;;6275102;22;20000;-94
2023/11/03 08:53:00;;;;;;;9.07;6.43;;;;;;;;;;6277658;22;20004;-93
2023/11/03 08:55:38;;;;;;;9.18;5.93;;;;;;;;;;6277650;22;20000;-93
2023/11/03 08:58:11;;;;;;;7.90;5.43;;;;;;;;;;6280662;22;20033;-92
2023/11/03 09:00:38;;;;;;;10.80;5.70;;;;;;;;;;6283024;22;20004;-93
2023/11/03 09:03:07;;;;;;;8.00;6.15;;;;;;;;;;6253062;23;20024;-91
2023/11/03 09:05:36;;;;;;;11.57;6.57;;;;;;;;;;6223758;23;20043;-94
2023/11/03 09:08:10;;;;;;;8.88;6.90;;;;;;;;;;6227021;23;20000;-96
2023/11/03 09:10:40;;;;;;;8.70;6.53;;;;;;;;;;6223977;23;20004;-91
2023/11/03 09:13:06;;;;;;;11.02;8.50;;;;;;;;;;6225150;23;20000;-93
2023/11/03 09:15:32;;;;;;;9.23;6.32;;;;;;;;;;6225317;23;20015;-93
2023/11/03 09:18:08;;;;;;;9.75;7.07;;;;;;;;;;6227349;23;20004;-93
2023/11/03 09:21:03;;;;;;;10.00;6.82;;;;;;;;;;6192722;23;20097;-94
2023/11/03 09:23:32;;;;;;;11.13;6.97;;;;;;;;;;6160719;23;20005;-93
2023/11/03 09:26:04;;;;;;;9.65;6.07;;;;;;;;;;6136262;23;20025;-93
2023/11/03 09:28:44;;;;;;;9.55;7.00;;;;;;;;;;6131326;23;20006;-93
2023/11/03 09:31:11;;;;;;;8.15;5.90;;;;;;;;;;6130561;23;20013;-93
2023/11/03 09:33:41;;;;;;;10.45;6.45;;;;;;;;;;6151347;23;20013;-92
2023/11/03 09:36:15;;;;;;;10.35;7.45;;;;;;;;;;6165204;23;20088;-93
2023/11/03 09:38:42;;;;;;;8.88;6.35;;;;;;;;;;6195394;22;20046;-92
2023/11/03 09:41:19;;;;;;;11.00;7.25;;;;;;;;;;6281729;22;20004;-93
2023/11/03 09:43:51;;;;;;;10.10;7.47;;;;;;;;;;6280677;22;20018;-92
2023/11/03 09:46:21;;;;;;;10.43;7.80;;;;;;;;;;6281581;22;20065;-92
2023/11/03 09:48:50;;;;;;;11.95;7.72;;;;;;;;;;6282374;22;19996;-95
2023/11/03 09:54:12;;;;;;;9.38;6.72;;;;;;;;;;6290203;22;20027;-94
2023/11/03 09:56:43;;;;;;;7.82;6.45;;;;;;;;;;6331417;22;20005;-93
2023/11/03 09:59:19;;;;;;;8.10;5.78;;;;;;;;;;6309063;22;20007;-95
2023/11/03 10:01:58;;;;;;;9.68;5.28;;;;;;;;;;6311348;22;20052;-95
2023/11/03 10:04:31;;;;;;;9.95;5.30;;;;;;;;;;6277900;22;20093;-93
2023/11/03 10:07:01;;;;;;;6.53;4.55;;;;;;;;;;6278560;22;20063;-93
2023/11/03 10:09:28;;;;;;;7.95;6.10;;;;;;;;;;6278728;22;20014;-93
2023/11/03 10:15:26;;;;;;;8.73;6.55;;;;;;;;;;6220233;23;20005;-93
2023/11/03 10:39:30;;;;;;;8.02;7.18;;;;;;;;;;6143327;23;20431;-95
2023/11/03 10:42:05;;;;;;;9.93;8.45;;;;;;;;;;6222646;23;20012;-94
2023/11/03 10:44:34;;;;;;;10.50;8.43;;;;;;;;;;6251995;22;20336;-94
2023/11/03 10:47:04;;;;;;;10.32;6.57;;;;;;;;;;6310758;22;20014;-92
2023/11/03 10:49:42;;;;;;;7.25;6.53;;;;;;;;;;6312630;22;20003;-94
2023/11/03 10:52:16;;;;;;;6.40;5.80;;;;;;;;;;6278436;22;20004;-93
2023/11/03 10:55:14;;;;;;;7.30;6.10;;;;;;;;;;6277582;22;20047;-95
2023/11/03 10:57:46;;;;;;;7.70;5.88;;;;;;;;;;6277859;22;20054;-92
2023/11/03 11:00:26;;;;;;;8.65;6.40;;;;;;;;;;6278689;22;20047;-95
2023/11/03 11:03:19;;;;;;;7.20;6.50;;;;;;;;;;6278015;22;20433;-95
2023/11/03 11:06:17;;;;;;;7.18;6.10;;;;;;;;;;6249208;23;20018;-94
2023/11/03 11:09:13;;;;;;;7.05;6.00;;;;;;;;;;6222918;23;20091;-93
2023/11/03 11:11:50;;;;;;;5.95;5.07;;;;;;;;;;6132879;23;20009;-92
2023/11/03 11:14:26;;;;;;;5.93;5.18;;;;;;;;;;6221743;23;20318;-92
2023/11/03 11:17:04;;;;;;;6.75;5.43;;;;;;;;;;6222801;23;20004;-94
2023/11/03 11:20:08;;;;;;;5.70;5.13;;;;;;;;;;6221365;23;20026;-93
2023/11/03 11:22:50;;;;;;;6.50;5.90;;;;;;;;;;6230523;22;20475;-94
2023/11/03 11:25:31;;;;;;;6.53;5.72;;;;;;;;;;6273556;22;20012;-91
2023/11/03 11:30:36;;;;;;;7.30;5.22;;;;;;;;;;6310771;22;20019;-95
2023/11/03 11:33:08;;;;;;;6.82;6.22;;;;;;;;;;6286832;22;20416;-95
2023/11/03 11:35:41;;;;;;;6.80;6.20;;;;;;;;;;6283334;22;20101;-96
2023/11/03 11:41:19;;;;;;;6.05;5.38;;;;;;;;;;6316586;22;20034;-96
2023/11/03 11:43:52;;;;;;;7.45;5.90;;;;;;;;;;6282527;22;20003;-95
2023/11/03 11:46:20;;;;;;;7.85;7.00;;;;;;;;;;6298570;22;19991;-94
2023/11/03 11:48:50;;;;;;;7.40;6.70;;;;;;;;;;6295904;22;20074;-94
2023/11/03 11:51:25;;;;;;;6.30;5.45;;;;;;;;;;6285189;22;20065;-94
2023/11/03 11:54:01;;;;;;;6.93;6.32;;;;;;;;;;6282696;22;19999;-94
2023/11/03 11:56:31;;;;;;;7.60;6.90;;;;;;;;;;6282938;22;20003;-95
2023/11/03 11:59:06;;;;;;;5.50;5.00;;;;;;;;;;6283744;22;20007;-95
2023/11/03 12:02:06;;;;;;;;;;;;;;;;;;;;;
2023/11/03 12:04:39;;;;;;;7.10;4.35;;;;;;;;;;6311371;22;20074;-95
2023/11/03 12:07:09;;;;;;;4.65;4.25;;;;;;;;;;6310992;22;20007;-96
2023/11/03 12:09:39;;;;;;;2.38;1.70;;;;;;;;;;6282919;22;20382;-95
2023/11/03 12:12:11;;;;;;;2.97;1.67;;;;;;;;;;6284085;22;20004;-95
2023/11/03 12:15:04;;;;;;;1.40;1.13;;;;;;;;;;6286172;22;19996;-91
2023/11/03 12:17:30;;;;;;;1.60;1.15;;;;;;;;;;6276550;22;20000;-95
2023/11/03 12:19:57;;;;;;;2.45;1.42;;;;;;;;;;6288441;22;20082;-92
2023/11/03 12:22:28;;;;;;;3.00;1.83;;;;;;;;;;6247650;23;20079;-92
2023/11/03 12:24:55;;;;;;;1.23;1.13;;;;;;;;;;6223217;23;20159;-95
2023/11/03 12:27:31;;;;;;;1.90;1.35;;;;;;;;;;6220003;23;20079;-93
2023/11/03 12:30:04;;;;;;;2.53;1.10;;;;;;;;;;6244645;23;20137;-95
2023/11/03 12:32:32;;;;;;;1.48;1.10;;;;;;;;;;6222081;23;20134;-95
2023/11/03 12:35:11;;;;;;;1.00;0.77;;;;;;;;;;6223336;23;20012;-93
2023/11/03 12:37:43;;;;;;;0.80;0.50;;;;;;;;;;6235426;22;20027;-94
2023/11/03 12:40:25;;;;;;;2.53;0.73;;;;;;;;;;6311006;22;20003;-95
2023/11/03 12:43:18;;;;;;;1.85;1.02;;;;;;;;;;6309111;22;20007;-94
2023/11/03 12:46:04;;;;;;;0.82;0.60;;;;;;;;;;6306118;22;20011;-96
2023/11/03 12:48:36;;;;;;;0.93;0.73;;;;;;;;;;6309648;22;20003;-95
2023/11/03 12:51:27;;;;;;;1.38;1.20;;;;;;;;;;6309366;22;20014;-95
2023/11/03 12:54:06;;;;;;;0.60;0.40;;;;;;;;;;6309433;22;20007;-94
2023/11/03 12:59:44;;;;;;;1.02;0.55;;;;;;;;;;6278563;22;20011;-96
2023/11/03 13:02:11;;;;;;;0.80;0.50;;;;;;;;;;6276878;22;20049;-94
2023/11/03 13:04:44;;;;;;;1.10;0.63;;;;;;;;;;6276251;22;20375;-95
2023/11/03 13:07:13;;;;;;;0.85;0.50;;;;;;;;;;6277744;22;20062;-94
2023/11/03 13:09:42;;;;;;;1.05;0.43;;;;;;;;;;6277846;22;20439;-95
2023/11/03 13:12:12;;;;;;;1.55;0.88;;;;;;;;;;6276821;22;20094;-94
2023/11/03 13:14:40;;;;;;;1.17;0.63;;;;;;;;;;6276695;22;20007;-94
2023/11/03 13:17:10;;;;;;;0.80;0.50;;;;;;;;;;6277454;22;20353;-96
2023/11/03 13:22:15;;;;;;;0.85;0.70;;;;;;;;;;6313665;22;20429;-95
2023/11/03 13:24:50;;;;;;;1.60;0.75;;;;;;;;;;6285833;22;20023;-95
2023/11/03 13:27:17;;;;;;;0.38;0.30;;;;;;;;;;6281826;22;20060;-93
2023/11/03 13:32:54;;;;;;;1.50;0.88;;;;;;;;;;6309558;22;20098;-95
2023/11/03 13:35:26;;;;;;;1.35;0.30;;;;;;;;;;6281605;22;20082;-94
2023/11/03 13:37:56;;;;;;;0.55;0.40;;;;;;;;;;6284830;22;20042;-94
2023/11/03 13:40:23;;;;;;;2.50;1.35;;;;;;;;;;6301600;22;19999;-94
2023/11/03 13:42:55;;;;;;;1.50;0.82;;;;;;;;;;6286252;22;20021;-92
2023/11/03 13:45:44;;;;;;;1.92;1.13;;;;;;;;;;6281581;22;20038;-94
2023/11/03 13:48:29;;;;;;;2.75;1.10;;;;;;;;;;6270163;22;20012;-96
2023/11/03 13:57:12;;;;;;;1.63;1.48;;;;;;;;;;6310767;22;20010;-94
2023/11/03 13:59:57;;;;;;;2.55;1.35;;;;;;;;;;6277086;22;20008;-94
2023/11/03 14:02:24;;;;;;;1.48;1.10;;;;;;;;;;6252445;22;20007;-95
2023/11/03 14:13:55;;;;;;;1.35;0.90;;;;;;;;;;6318239;22;20023;-94
2023/11/03 14:25:06;;;;;;;1.75;1.00;;;;;;;;;;6320765;22;20018;-93
2023/11/03 14:33:30;;;;;;;2.92;1.48;;;;;;;;;;6252617;22;20008;-94
2023/11/03 14:38:58;;;;;;;2.40;1.48;;;;;;;;;;6295166;22;20069;-94
2023/11/03 14:41:31;;;;;;;1.55;0.90;;;;;;;;;;6315535;22;20029;-96
2023/11/03 14:44:01;;;;;;;3.22;0.93;;;;;;;;;;6311656;22;20061;-95
2023/11/03 14:46:30;;;;;;;2.05;1.20;;;;;;;;;;6282712;22;20023;-94
2023/11/03 14:49:19;;;;;;;1.13;0.80;;;;;;;;;;6278236;22;20481;-94
2023/11/03 14:51:57;;;;;;;1.38;0.95;;;;;;;;;;6246540;23;20012;-93
2023/11/03 14:54:23;;;;;;;1.58;1.10;;;;;;;;;;6246201;23;20005;-94
2023/11/03 14:56:55;;;;;;;2.63;1.00;;;;;;;;;;6246875;23;20004;-95
2023/11/03 15:05:22;;;;;;;1.65;0.90;;;;;;;;;;6241094;23;20047;-93
2023/11/03 15:07:55;;;;;;;1.40;0.82;;;;;;;;;;6246317;23;20003;-94
2023/11/03 15:10:26;;;;;;;1.65;0.90;;;;;;;;;;6245555;23;20004;-94
2023/11/03 15:13:04;;;;;;;1.75;1.17;;;;;;;;;;6246331;23;20004;-93
2023/11/03 15:15:37;;;;;;;1.60;0.93;;;;;;;;;;6245880;23;20032;-94
2023/11/03 15:18:06;;;;;;;1.00;0.67;;;;;;;;;;6245641;23;20079;-94
2023/11/03 15:20:48;;;;;;;1.05;0.85;;;;;;;;;;6221974;23;20010;-94
2023/11/03 15:23:29;;;;;;;1.50;0.90;;;;;;;;;;6246377;22;20090;-93
2023/11/03 15:34:15;;;;;;;1.75;1.10;;;;;;;;;;6253374;22;20038;-94
2023/11/03 15:39:32;;;;;;;1.77;0.90;;;;;;;;;;6312918;22;20003;-95
2023/11/03 15:41:59;;;;;;;2.42;1.40;;;;;;;;;;6295168;22;20015;-92
2023/11/03 15:49:47;;;;;;;2.95;1.25;;;;;;;;;;6305413;22;20011;-96
2023/11/03 15:52:31;;;;;;;2.28;1.27;;;;;;;;;;6284694;22;20022;-93
2023/11/03 15:55:03;;;;;;;2.72;1.42;;;;;;;;;;6312187;22;20012;-92
2023/11/03 15:57:33;;;;;;;4.28;0.98;;;;;;;;;;6309666;22;20008;-91
2023/11/03 16:00:02;;;;;;;2.47;0.80;;;;;;;;;;6290710;22;20006;-91
2023/11/03 16:02:29;;;;;;;1.80;1.00;;;;;;;;;;6309686;22;20007;-91
2023/11/03 16:05:23;;;;;;;1.75;0.90;;;;;;;;;;6310235;22;20010;-95
2023/11/03 16:07:54;;;;;;;1.73;0.90;;;;;;;;;;6307853;22;20030;-92
2023/11/03 16:10:46;;;;;;;1.13;0.70;;;;;;;;;;6308075;22;20007;-93
2023/11/03 16:13:13;;;;;;;2.00;1.13;;;;;;;;;;6308952;22;20010;-92
2023/11/03 16:15:43;;;;;;;1.48;0.80;;;;;;;;;;6309619;22;20010;-93
2023/11/03 16:18:21;;;;;;;3.47;1.80;;;;;;;;;;6309746;22;20007;-93
2023/11/03 16:20:48;;;;;;;2.47;1.50;;;;;;;;;;6313862;22;20074;-92
2023/11/03 16:23:17;;;;;;;1.38;0.80;;;;;;;;;;6304218;22;20014;-92
2023/11/03 16:25:52;;;;;;;4.85;1.33;;;;;;;;;;6308495;22;20381;-92
2023/11/03 16:28:21;;;;;;;2.25;1.00;;;;;;;;;;6307958;22;19999;-93
2023/11/03 16:30:53;;;;;;;3.45;1.17;;;;;;;;;;6295563;22;20437;-92
2023/11/03 16:33:23;;;;;;;3.90;2.08;;;;;;;;;;6243232;22;20021;-95
2023/11/03 16:35:54;;;;;;;3.10;1.65;;;;;;;;;;6248518;22;20044;-93
2023/11/03 16:38:26;;;;;;;1.75;1.08;;;;;;;;;;6268750;22;20019;-95
2023/11/03 16:40:58;;;;;;;3.75;1.80;;;;;;;;;;6276980;22;20027;-96
2023/11/03 16:43:37;;;;;;;2.20;1.10;;;;;;;;;;6317613;22;20132;-95
2023/11/03 16:48:59;;;;;;;4.25;0.93;;;;;;;;;;6290444;22;20080;-94
2023/11/03 17:07:46;;;;;;;1.90;0.90;;;;;;;;;;6228966;22;20008;-93
2023/11/03 17:35:32;;;;;;;2.78;1.67;;;;;;;;;;6202413;23;20075;-95
2023/11/03 18:15:38;;;;;;;5.28;1.92;;;;;;;;;;6252506;22;20059;-94
2023/11/03 18:18:35;;;;;;;2.97;1.50;;;;;;;;;;6268219;22;20026;-93
2023/11/03 18:32:39;;;;;;;4.88;3.30;;;;;;;;;;6287285;22;20030;-91
2023/11/03 18:35:30;;;;;;;5.72;2.72;;;;;;;;;;6321828;22;20050;-93
2023/11/03 18:40:45;;;;;;;2.25;1.55;;;;;;;;;;6280804;22;20036;-92
2023/11/03 18:46:18;;;;;;;1.63;1.02;;;;;;;;;;6311126;22;20061;-94
2023/11/03 18:52:11;;;;;;;2.60;1.70;;;;;;;;;;6316692;22;20034;-92
2023/11/03 18:54:59;;;;;;;2.75;1.80;;;;;;;;;;6314503;22;20014;-93
2023/11/03 18:57:31;;;;;;;3.10;1.92;;;;;;;;;;6314055;22;20003;-93
2023/11/03 18:59:57;;;;;;;1.75;1.02;;;;;;;;;;6314265;22;20014;-93
2023/11/03 19:02:29;;;;;;;2.95;1.30;;;;;;;;;;6316034;22;20006;-94
2023/11/03 19:05:03;;;;;;;7.80;3.70;;;;;;;;;;6314317;22;20019;-95
2023/11/03 19:07:32;;;;;;;;;;;;;;;;;;6304376;22;20015;-93
2023/11/03 19:10:25;;;;;;;2.40;1.30;;;;;;;;;;6310737;22;19895;-93
2023/11/03 19:12:54;;;;;;;6.32;2.40;;;;;;;;;;6311949;22;20511;-94
2023/11/03 19:15:23;;;;;;;5.32;2.78;;;;;;;;;;6313674;22;20003;-94
2023/11/03 19:18:20;;;;;;;5.88;3.25;;;;;;;;;;6311825;22;20491;-93
2023/11/03 19:21:01;;;;;;;6.78;2.97;;;;;;;;;;6209248;23;19996;-93
2023/11/03 19:23:35;;;;;;;3.65;2.45;;;;;;;;;;6227060;23;20035;-93
2023/11/03 19:29:36;;;;;;;;;;;;;;;;;;;;;
2023/11/03 19:32:34;;;;;;;1.98;1.50;;;;;;;;;;6220967;23;20040;-94
2023/11/03 19:38:31;;;;;;;4.00;1.92;;;;;;;;;;6227602;23;20430;-91
2023/11/03 19:41:06;;;;;;;3.30;1.65;;;;;;;;;;6195413;23;20067;-92
2023/11/03 19:43:37;;;;;;;3.47;1.90;;;;;;;;;;6195092;23;20009;-93
2023/11/03 19:46:12;;;;;;;3.20;1.80;;;;;;;;;;6195288;23;20012;-93
2023/11/03 19:48:42;;;;;;;2.97;2.20;;;;;;;;;;6194335;23;20015;-92
2023/11/03 19:51:20;;;;;;;4.15;2.30;;;;;;;;;;6167207;23;20009;-91
2023/11/03 19:54:20;;;;;;;6.38;2.00;;;;;;;;;;6169530;23;20037;-91
2023/11/03 19:59:59;;;;;;;3.78;1.98;;;;;;;;;;6229850;23;19991;-92
2023/11/03 20:08:38;;;;;;;6.40;4.03;;;;;;;;;;6162968;23;20049;-92
2023/11/03 20:12:07;;;;;;;9.07;5.28;;;;;;;;;;6138068;23;20022;-93
2023/11/03 20:14:33;;;;;;;4.72;3.10;;;;;;;;;;6107829;23;20009;-94
2023/11/03 20:17:19;;;;;;;3.72;2.40;;;;;;;;;;6102797;23;20013;-94
2023/11/03 20:20:14;;;;;;;;;;;;;;;;;;;;;
2023/11/03 20:22:54;;;;;;;9.27;5.22;;;;;;;;;;6130241;23;20480;-94
2023/11/03 20:48:06;;;;;;;5.93;2.80;;;;;;;;;;6258563;22;20088;-96
2023/11/03 20:53:43;;;;;;;29.58;13.73;;;;;;;;;;6215340;22;20023;-94
2023/11/03 21:04:01;;;;;;;6.30;2.42;;;;;;;;;;6259180;22;20058;-95
2023/11/03 21:18:09;;;;;;;7.57;3.08;;;;;;;;;;6266349;22;20019;-95
2023/11/03 21:29:29;;;;;;;7.65;4.22;;;;;;;;;;6314139;22;20026;-96
2023/11/03 21:38:07;;;;;;;12.85;5.60;;;;;;;;;;6319212;22;20014;-94
2023/11/03 21:40:39;;;;;;;13.52;6.85;;;;;;;;;;6310380;22;20003;-93
2023/11/03 21:52:04;;;;;;;11.43;4.72;;;;;;;;;;6321548;22;20053;-95
2023/11/03 22:15:26;;;;;;;14.10;8.50;;;;;;;;;;6320773;22;20026;-95
2023/11/03 22:26:42;;;;;;;17.88;11.30;;;;;;;;;;6256737;22;20066;-95
2023/11/03 22:29:35;;;;;;;12.77;7.35;;;;;;;;;;6284300;22;20023;-96
2023/11/03 22:40:29;;;;;;;17.45;8.52;;;;;;;;;;6307551;22;20023;-94